Time;durP1;ratioP1;P1;durP2;ratioP2;P2;SDS_P1;SDS_P2;PMS_P1;PMS_P2;Temp;Humidity;BMP_temperature;BMP_pressure;BME280_temperature;BME280_humidity;BME280_pressure;Samples;Min_cycle;Max_cycle;Signal;HPM_P1;HPM_P2
2023/02/13 00:00:12;;;;;;;9.63;5.85;;;;;;;;;;1031489;28;20030;-80
2023/02/13 00:00:42;;;;;;;13.05;5.78;;;;;;;;;;1031958;28;20022;-79
2023/02/13 00:01:13;;;;;;;11.23;10.05;;;;;;;;;;1032065;28;20054;-77
2023/02/13 00:01:43;;;;;;;8.68;6.47;;;;;;;;;;1031377;28;20018;-77
2023/02/13 00:02:14;;;;;;;12.52;7.15;;;;;;;;;;1026662;28;20534;-77
2023/02/13 00:02:45;;;;;;;33.75;5.45;;;;;;;;;;1027179;28;20682;-77
2023/02/13 00:03:15;;;;;;;7.22;5.47;;;;;;;;;;1027981;28;20107;-77
2023/02/13 00:03:46;;;;;;;12.85;5.57;;;;;;;;;;1031401;28;20585;-77
2023/02/13 00:04:16;;;;;;;6.80;3.78;;;;;;;;;;1031367;28;20026;-80
2023/02/13 00:04:47;;;;;;;5.78;4.20;;;;;;;;;;1031294;28;20104;-77
2023/02/13 00:05:17;;;;;;;11.77;8.35;;;;;;;;;;1031797;28;20396;-77
2023/02/13 00:05:47;;;;;;;7.68;5.38;;;;;;;;;;1031165;28;20478;-77
2023/02/13 00:06:18;;;;;;;13.90;5.40;;;;;;;;;;1031415;28;20391;-77
2023/02/13 00:06:48;;;;;;;4.35;3.85;;;;;;;;;;1034392;28;20041;-77
2023/02/13 00:07:20;;;;;;;9.40;5.82;;;;;;;;;;1031192;28;20121;-79
2023/02/13 00:07:50;;;;;;;10.80;5.18;;;;;;;;;;1031744;28;20039;-77
2023/02/13 00:08:21;;;;;;;6.93;4.32;;;;;;;;;;1030414;28;20022;-80
2023/02/13 00:08:51;;;;;;;12.23;6.20;;;;;;;;;;1030605;28;20026;-78
2023/02/13 00:09:22;;;;;;;13.43;6.38;;;;;;;;;;1031351;28;20027;-77
2023/02/13 00:09:52;;;;;;;7.07;5.70;;;;;;;;;;1031653;28;20026;-77
2023/02/13 00:10:23;;;;;;;6.78;5.25;;;;;;;;;;1031337;28;20034;-77
2023/02/13 00:10:53;;;;;;;7.10;5.47;;;;;;;;;;1031652;28;20026;-77
2023/02/13 00:11:24;;;;;;;8.85;5.60;;;;;;;;;;1033926;28;20037;-77
2023/02/13 00:11:54;;;;;;;8.90;7.43;;;;;;;;;;1031336;28;20022;-77
2023/02/13 00:12:24;;;;;;;6.65;5.90;;;;;;;;;;1029629;28;20101;-78
2023/02/13 00:12:55;;;;;;;4.97;2.90;;;;;;;;;;1029233;28;20046;-78
2023/02/13 00:13:25;;;;;;;10.45;5.78;;;;;;;;;;1031212;28;20026;-77
2023/02/13 00:13:57;;;;;;;15.10;6.75;;;;;;;;;;1031841;28;20108;-78
2023/02/13 00:14:28;;;;;;;10.65;7.32;;;;;;;;;;1032512;28;20030;-78
2023/02/13 00:14:59;;;;;;;12.48;5.70;;;;;;;;;;1033163;28;20026;-78
2023/02/13 00:15:29;;;;;;;20.80;6.00;;;;;;;;;;1029727;28;20487;-78
2023/02/13 00:16:01;;;;;;;31.25;6.72;;;;;;;;;;1031397;28;20022;-78
2023/02/13 00:16:32;;;;;;;6.60;4.63;;;;;;;;;;1028325;28;20034;-78
2023/02/13 00:17:02;;;;;;;9.52;4.63;;;;;;;;;;1032015;28;20070;-78
2023/02/13 00:17:33;;;;;;;6.20;4.03;;;;;;;;;;1031701;28;20027;-78
2023/02/13 00:18:03;;;;;;;10.43;5.18;;;;;;;;;;1032129;28;20026;-78
2023/02/13 00:18:35;;;;;;;5.25;3.25;;;;;;;;;;1033204;28;20105;-78
2023/02/13 00:19:06;;;;;;;5.60;3.90;;;;;;;;;;1028218;28;20054;-77
2023/02/13 00:19:36;;;;;;;3.20;2.90;;;;;;;;;;1029180;28;20030;-78
2023/02/13 00:20:07;;;;;;;12.65;4.78;;;;;;;;;;1026538;28;20045;-77
2023/02/13 00:20:38;;;;;;;5.03;3.47;;;;;;;;;;1027505;28;20022;-77
2023/02/13 00:21:10;;;;;;;4.68;3.83;;;;;;;;;;1031717;28;20379;-79
2023/02/13 00:21:40;;;;;;;5.00;3.08;;;;;;;;;;1027329;28;20038;-80
2023/02/13 00:22:11;;;;;;;4.85;3.42;;;;;;;;;;1024911;28;20070;-80
2023/02/13 00:22:42;;;;;;;7.18;4.65;;;;;;;;;;1029269;28;20474;-79
2023/02/13 00:23:12;;;;;;;7.82;5.50;;;;;;;;;;1028546;28;20030;-80
2023/02/13 00:23:42;;;;;;;10.35;5.82;;;;;;;;;;1035708;28;20081;-80
2023/02/13 00:24:14;;;;;;;5.03;3.28;;;;;;;;;;1031613;28;20165;-77
2023/02/13 00:24:44;;;;;;;16.88;6.03;;;;;;;;;;1031726;28;20084;-77
2023/02/13 00:25:15;;;;;;;8.88;4.32;;;;;;;;;;1031661;28;20026;-77
2023/02/13 00:25:45;;;;;;;11.30;5.00;;;;;;;;;;1031537;28;20122;-77
2023/02/13 00:26:16;;;;;;;9.80;6.60;;;;;;;;;;1031542;28;20018;-77
2023/02/13 00:26:46;;;;;;;8.43;4.20;;;;;;;;;;1031433;28;20050;-77
2023/02/13 00:27:17;;;;;;;8.85;4.90;;;;;;;;;;1031389;28;20082;-77
2023/02/13 00:27:49;;;;;;;7.25;5.32;;;;;;;;;;1033399;28;20091;-77
2023/02/13 00:28:20;;;;;;;6.82;5.32;;;;;;;;;;1033469;28;20022;-77
2023/02/13 00:28:51;;;;;;;8.18;5.20;;;;;;;;;;1030647;28;20014;-77
2023/02/13 00:29:21;;;;;;;3.67;3.35;;;;;;;;;;1030159;28;20056;-77
2023/02/13 00:29:51;;;;;;;3.13;2.40;;;;;;;;;;1031651;28;20072;-77
2023/02/13 00:30:22;;;;;;;9.95;6.38;;;;;;;;;;1031711;28;20462;-77
2023/02/13 00:30:52;;;;;;;6.57;5.00;;;;;;;;;;1032371;28;20128;-77
2023/02/13 00:31:23;;;;;;;16.58;5.75;;;;;;;;;;1031635;28;20031;-77
2023/02/13 00:31:53;;;;;;;13.48;5.10;;;;;;;;;;1031733;28;20030;-77
2023/02/13 00:32:24;;;;;;;8.15;5.95;;;;;;;;;;1031752;28;20072;-77
2023/02/13 00:32:55;;;;;;;12.73;6.13;;;;;;;;;;1032141;28;20032;-77
2023/02/13 00:33:25;;;;;;;17.02;6.40;;;;;;;;;;1031452;28;20077;-77
2023/02/13 00:33:55;;;;;;;6.55;4.50;;;;;;;;;;1031478;28;20050;-77
2023/02/13 00:34:26;;;;;;;9.18;6.78;;;;;;;;;;1031288;28;20460;-77
2023/02/13 00:34:57;;;;;;;8.73;5.68;;;;;;;;;;1028397;28;20117;-77
2023/02/13 00:35:27;;;;;;;7.00;4.65;;;;;;;;;;1028721;28;20385;-77
2023/02/13 00:36:05;;;;;;;10.88;4.72;;;;;;;;;;1029453;28;20033;-77
2023/02/13 00:36:36;;;;;;;6.95;4.50;;;;;;;;;;1028422;28;20057;-77
2023/02/13 00:37:06;;;;;;;6.13;4.85;;;;;;;;;;1029807;28;20022;-77
2023/02/13 00:37:37;;;;;;;12.88;3.85;;;;;;;;;;1030476;28;20030;-77
2023/02/13 00:38:08;;;;;;;7.13;4.20;;;;;;;;;;1033516;28;20023;-77
2023/02/13 00:38:39;;;;;;;7.05;4.43;;;;;;;;;;1031226;28;20015;-77
2023/02/13 00:39:10;;;;;;;6.03;3.97;;;;;;;;;;1025508;28;20476;-77
2023/02/13 00:39:41;;;;;;;5.05;4.18;;;;;;;;;;1027975;28;20027;-77
2023/02/13 00:40:12;;;;;;;18.67;4.53;;;;;;;;;;1027714;28;20027;-77
2023/02/13 00:40:42;;;;;;;12.27;5.68;;;;;;;;;;1029409;28;20031;-77
2023/02/13 00:41:15;;;;;;;6.47;3.33;;;;;;;;;;1031231;28;20125;-78
2023/02/13 00:41:45;;;;;;;10.65;5.15;;;;;;;;;;1031379;28;20034;-78
2023/02/13 00:42:16;;;;;;;20.15;8.57;;;;;;;;;;1032377;28;20022;-78
2023/02/13 00:42:46;;;;;;;8.45;4.82;;;;;;;;;;1032084;28;20023;-78
2023/02/13 00:43:17;;;;;;;6.97;4.45;;;;;;;;;;1031542;28;20073;-78
2023/02/13 00:43:48;;;;;;;8.10;7.28;;;;;;;;;;1031726;28;20026;-77
2023/02/13 00:44:18;;;;;;;15.90;6.63;;;;;;;;;;1031930;28;20458;-78
2023/02/13 00:44:49;;;;;;;8.95;6.50;;;;;;;;;;1031872;28;20421;-78
2023/02/13 00:45:19;;;;;;;10.43;7.07;;;;;;;;;;1030670;28;20041;-78
2023/02/13 00:45:50;;;;;;;12.95;6.00;;;;;;;;;;1031449;28;20033;-78
2023/02/13 00:46:20;;;;;;;25.52;9.73;;;;;;;;;;1028369;28;20482;-78
2023/02/13 00:46:51;;;;;;;15.85;7.20;;;;;;;;;;1026846;28;20463;-78
2023/02/13 00:47:21;;;;;;;18.45;9.70;;;;;;;;;;1032450;28;20417;-78
2023/02/13 00:47:52;;;;;;;33.58;11.05;;;;;;;;;;1033841;28;20511;-77
2023/02/13 00:48:22;;;;;;;17.73;14.02;;;;;;;;;;1035322;28;20026;-77
2023/02/13 00:48:53;;;;;;;29.90;14.27;;;;;;;;;;1035704;28;20018;-78
2023/02/13 00:49:23;;;;;;;27.15;14.75;;;;;;;;;;1035316;28;20037;-78
2023/02/13 00:49:54;;;;;;;30.75;14.48;;;;;;;;;;1032037;28;20507;-78
2023/02/13 00:50:24;;;;;;;33.83;21.77;;;;;;;;;;1030417;28;20125;-78
2023/02/13 00:50:55;;;;;;;27.00;14.77;;;;;;;;;;1031737;28;20030;-78
2023/02/13 00:51:25;;;;;;;66.30;26.35;;;;;;;;;;1030562;28;20031;-78
2023/02/13 00:51:56;;;;;;;36.13;19.58;;;;;;;;;;1027593;28;20035;-78
2023/02/13 00:52:26;;;;;;;39.78;20.45;;;;;;;;;;1027512;28;20086;-78
2023/02/13 00:52:57;;;;;;;51.85;22.95;;;;;;;;;;1031478;28;20028;-78
2023/02/13 00:53:27;;;;;;;53.95;26.92;;;;;;;;;;1031779;28;20564;-78
2023/02/13 00:53:58;;;;;;;59.22;25.88;;;;;;;;;;1035380;28;20026;-78
2023/02/13 00:54:28;;;;;;;46.13;20.35;;;;;;;;;;1035924;28;20026;-78
2023/02/13 00:54:59;;;;;;;45.15;19.10;;;;;;;;;;1031524;28;20467;-78
2023/02/13 00:55:29;;;;;;;40.67;16.70;;;;;;;;;;1031126;28;20022;-78
2023/02/13 00:56:00;;;;;;;29.13;16.02;;;;;;;;;;1027559;28;20031;-78
2023/02/13 00:56:30;;;;;;;44.22;19.15;;;;;;;;;;1027084;28;20041;-78
2023/02/13 00:57:01;;;;;;;44.05;22.98;;;;;;;;;;1031186;28;20018;-78
2023/02/13 00:57:32;;;;;;;50.75;20.92;;;;;;;;;;1027819;28;20031;-78
2023/02/13 00:58:02;;;;;;;37.28;17.63;;;;;;;;;;1029415;28;20025;-78
2023/02/13 00:58:33;;;;;;;40.60;20.17;;;;;;;;;;1031120;28;20030;-78
2023/02/13 00:59:03;;;;;;;39.72;16.33;;;;;;;;;;1031404;28;20029;-78
2023/02/13 00:59:34;;;;;;;41.65;22.85;;;;;;;;;;1034994;28;20144;-77
2023/02/13 01:00:04;;;;;;;42.25;24.00;;;;;;;;;;1032600;28;20022;-77
2023/02/13 01:00:35;;;;;;;33.15;18.38;;;;;;;;;;1031068;28;20085;-78
2023/02/13 01:01:06;;;;;;;38.85;18.35;;;;;;;;;;1031776;28;20031;-78
2023/02/13 01:01:36;;;;;;;61.80;20.65;;;;;;;;;;1031282;28;20632;-78
2023/02/13 01:02:06;;;;;;;34.05;20.55;;;;;;;;;;1031296;28;20026;-78
2023/02/13 01:02:37;;;;;;;55.45;22.00;;;;;;;;;;1031523;28;20628;-78
2023/02/13 01:03:08;;;;;;;35.67;20.55;;;;;;;;;;1031354;28;20109;-78
2023/02/13 01:03:38;;;;;;;42.40;19.83;;;;;;;;;;1027942;28;20030;-78
2023/02/13 01:04:09;;;;;;;28.00;16.77;;;;;;;;;;1031473;28;20141;-78
2023/02/13 01:04:39;;;;;;;43.17;20.65;;;;;;;;;;1031555;28;20529;-78
2023/02/13 01:05:10;;;;;;;41.83;18.27;;;;;;;;;;1032723;28;20133;-78
2023/02/13 01:05:41;;;;;;;47.47;19.52;;;;;;;;;;1031648;28;20018;-78
2023/02/13 01:06:11;;;;;;;51.45;18.98;;;;;;;;;;1031417;28;20130;-78
2023/02/13 01:06:41;;;;;;;42.95;22.00;;;;;;;;;;1030855;28;20027;-78
2023/02/13 01:07:12;;;;;;;63.67;22.42;;;;;;;;;;1032403;28;20026;-78
2023/02/13 01:07:43;;;;;;;50.42;23.00;;;;;;;;;;1031308;28;20080;-78
2023/02/13 01:08:14;;;;;;;38.33;17.08;;;;;;;;;;1026948;28;20054;-78
2023/02/13 01:08:46;;;;;;;37.13;18.90;;;;;;;;;;1027516;28;20062;-78
2023/02/13 01:09:16;;;;;;;45.80;22.02;;;;;;;;;;1028373;28;20102;-78
2023/02/13 01:09:47;;;;;;;55.03;17.10;;;;;;;;;;1028564;28;20026;-78
2023/02/13 01:10:17;;;;;;;38.60;21.52;;;;;;;;;;1031168;28;20033;-78
2023/02/13 01:10:48;;;;;;;60.38;23.00;;;;;;;;;;1031285;28;20454;-78
2023/02/13 01:11:18;;;;;;;50.95;19.88;;;;;;;;;;1027228;28;20026;-79
2023/02/13 01:11:49;;;;;;;38.15;20.20;;;;;;;;;;1027115;28;20613;-78
2023/02/13 01:12:19;;;;;;;44.45;19.65;;;;;;;;;;1022973;28;20035;-78
2023/02/13 01:12:50;;;;;;;74.65;24.20;;;;;;;;;;1027296;28;20015;-77
2023/02/13 01:13:20;;;;;;;31.55;18.50;;;;;;;;;;1031235;28;20529;-80
2023/02/13 01:13:51;;;;;;;38.22;18.75;;;;;;;;;;1030759;28;20113;-78
2023/02/13 01:14:21;;;;;;;23.10;18.65;;;;;;;;;;1031228;28;20519;-78
2023/02/13 01:14:52;;;;;;;38.70;19.90;;;;;;;;;;1032655;28;20030;-78
2023/02/13 01:15:23;;;;;;;27.60;16.27;;;;;;;;;;1032041;28;20022;-78
2023/02/13 01:15:53;;;;;;;39.22;19.77;;;;;;;;;;1031586;28;20018;-78
2023/02/13 01:16:24;;;;;;;53.78;18.92;;;;;;;;;;1031435;28;20040;-78
2023/02/13 01:16:54;;;;;;;38.40;21.20;;;;;;;;;;1031120;28;20026;-78
2023/02/13 01:17:25;;;;;;;34.20;16.13;;;;;;;;;;1027773;28;20031;-78
2023/02/13 01:17:56;;;;;;;44.65;20.05;;;;;;;;;;1028747;28;20018;-79
2023/02/13 01:18:27;;;;;;;31.45;18.30;;;;;;;;;;1027737;28;20939;-78
2023/02/13 01:18:57;;;;;;;23.08;13.23;;;;;;;;;;1031831;28;20049;-78
2023/02/13 01:19:28;;;;;;;42.40;17.13;;;;;;;;;;1029551;28;20532;-77
2023/02/13 01:19:58;;;;;;;32.70;11.73;;;;;;;;;;1029912;28;20026;-79
2023/02/13 01:20:29;;;;;;;34.90;20.08;;;;;;;;;;1028355;28;20023;-78
2023/02/13 01:21:02;;;;;;;24.85;15.63;;;;;;;;;;1033092;28;20026;-78
2023/02/13 01:21:34;;;;;;;29.60;16.88;;;;;;;;;;1032069;28;20022;-78
2023/02/13 01:22:04;;;;;;;33.13;15.20;;;;;;;;;;1033263;28;20029;-79
2023/02/13 01:22:35;;;;;;;47.33;21.75;;;;;;;;;;1035357;28;20601;-79
2023/02/13 01:23:06;;;;;;;27.17;16.73;;;;;;;;;;1035907;28;20032;-78
2023/02/13 01:23:37;;;;;;;30.73;18.10;;;;;;;;;;1031491;28;20041;-78
2023/02/13 01:24:07;;;;;;;45.13;18.67;;;;;;;;;;1031665;28;20022;-78
2023/02/13 01:24:38;;;;;;;29.30;14.63;;;;;;;;;;1027242;28;20093;-78
2023/02/13 01:25:08;;;;;;;51.80;19.20;;;;;;;;;;1027594;28;20031;-79
2023/02/13 01:25:42;;;;;;;33.08;18.70;;;;;;;;;;1026484;28;20033;-79
2023/02/13 01:26:17;;;;;;;51.83;18.27;;;;;;;;;;1031563;28;20429;-79
2023/02/13 01:26:47;;;;;;;33.83;15.02;;;;;;;;;;1034973;28;20032;-79
2023/02/13 01:27:18;;;;;;;41.65;20.33;;;;;;;;;;1035290;28;20045;-80
2023/02/13 01:27:48;;;;;;;36.08;17.40;;;;;;;;;;1035451;28;20030;-80
2023/02/13 01:28:19;;;;;;;38.97;15.68;;;;;;;;;;1035251;28;20116;-79
2023/02/13 01:28:53;;;;;;;38.10;18.58;;;;;;;;;;1027752;28;20026;-80
2023/02/13 01:29:24;;;;;;;30.55;14.93;;;;;;;;;;1025473;28;20046;-79
2023/02/13 01:29:55;;;;;;;46.25;19.48;;;;;;;;;;1026858;28;20081;-79
2023/02/13 01:30:25;;;;;;;27.33;13.68;;;;;;;;;;1024636;28;20098;-79
2023/02/13 01:30:56;;;;;;;26.42;13.77;;;;;;;;;;1028523;28;20023;-79
2023/02/13 01:31:29;;;;;;;35.05;13.57;;;;;;;;;;1029056;28;20027;-80
2023/02/13 01:32:03;;;;;;;23.08;11.93;;;;;;;;;;1024333;28;20582;-79
2023/02/13 01:32:34;;;;;;;35.55;14.85;;;;;;;;;;1025239;28;21460;-79
2023/02/13 01:33:04;;;;;;;31.35;16.10;;;;;;;;;;1027254;28;20034;-79
2023/02/13 01:33:35;;;;;;;27.15;12.32;;;;;;;;;;1026627;28;20118;-79
2023/02/13 01:34:05;;;;;;;35.85;19.48;;;;;;;;;;1031489;28;20022;-79
2023/02/13 01:34:37;;;;;;;29.10;16.10;;;;;;;;;;1034980;28;20088;-79
2023/02/13 01:35:10;;;;;;;24.42;12.50;;;;;;;;;;1029871;28;20387;-79
2023/02/13 01:35:40;;;;;;;38.22;15.30;;;;;;;;;;1026775;28;20138;-80
2023/02/13 01:36:13;;;;;;;51.35;17.58;;;;;;;;;;1027872;28;20090;-80
2023/02/13 01:36:43;;;;;;;54.72;14.60;;;;;;;;;;1028542;28;20031;-79
2023/02/13 01:37:14;;;;;;;33.17;13.85;;;;;;;;;;1032402;28;20113;-79
2023/02/13 01:37:44;;;;;;;35.55;15.07;;;;;;;;;;1028136;28;20026;-79
2023/02/13 01:38:15;;;;;;;48.42;14.43;;;;;;;;;;1027968;28;20106;-81
2023/02/13 01:38:48;;;;;;;28.05;13.63;;;;;;;;;;1028071;28;20129;-79
2023/02/13 01:39:18;;;;;;;35.63;16.42;;;;;;;;;;1026792;28;20030;-79
2023/02/13 01:39:50;;;;;;;36.00;15.27;;;;;;;;;;1025141;28;20069;-79
2023/02/13 01:40:22;;;;;;;41.72;20.48;;;;;;;;;;1028948;28;20129;-79
2023/02/13 01:40:54;;;;;;;31.80;20.23;;;;;;;;;;1028039;28;20517;-79
2023/02/13 01:41:25;;;;;;;33.50;19.70;;;;;;;;;;1027772;28;20084;-79
2023/02/13 01:41:56;;;;;;;40.20;21.42;;;;;;;;;;1032360;28;20591;-80
2023/02/13 01:42:28;;;;;;;47.35;16.00;;;;;;;;;;1032291;28;20033;-79
2023/02/13 01:42:59;;;;;;;36.95;20.67;;;;;;;;;;1031527;28;20465;-79
2023/02/13 01:43:42;;;;;;;34.72;19.17;;;;;;;;;;1032023;28;20037;-79
2023/02/13 01:44:32;;;;;;;54.90;19.33;;;;;;;;;;1029813;28;20031;-78
2023/02/13 01:45:04;;;;;;;45.88;16.60;;;;;;;;;;1027062;28;20035;-79
2023/02/13 01:45:35;;;;;;;40.85;20.65;;;;;;;;;;1029808;28;20190;-79
2023/02/13 01:46:06;;;;;;;46.38;21.90;;;;;;;;;;1029482;28;20053;-79
2023/02/13 01:46:39;;;;;;;30.05;17.77;;;;;;;;;;1031225;28;20080;-79
2023/02/13 01:47:10;;;;;;;73.45;26.58;;;;;;;;;;1032319;28;20105;-79
2023/02/13 01:47:43;;;;;;;45.10;21.95;;;;;;;;;;1035653;28;20021;-79
2023/02/13 01:48:16;;;;;;;58.20;25.25;;;;;;;;;;1031759;28;20030;-79
2023/02/13 01:48:47;;;;;;;47.03;20.65;;;;;;;;;;1030843;28;20026;-78
2023/02/13 01:49:19;;;;;;;20.40;14.48;;;;;;;;;;1031619;28;20030;-79
2023/02/13 01:49:53;;;;;;;31.40;16.00;;;;;;;;;;1028346;28;20035;-79
2023/02/13 01:50:36;;;;;;;30.88;15.73;;;;;;;;;;1032222;28;20022;-79
2023/02/13 01:51:09;;;;;;;35.13;16.48;;;;;;;;;;1032067;28;20101;-79
2023/02/13 01:51:41;;;;;;;31.27;19.25;;;;;;;;;;1030247;28;20062;-79
2023/02/13 01:52:12;;;;;;;35.40;19.38;;;;;;;;;;1030549;28;20034;-78
2023/02/13 01:52:50;;;;;;;55.60;22.85;;;;;;;;;;1029576;28;20023;-80
2023/02/13 01:53:40;;;;;;;45.55;21.30;;;;;;;;;;1030765;28;20026;-79
2023/02/13 01:54:16;;;;;;;46.72;18.67;;;;;;;;;;1032111;28;20565;-79
2023/02/13 01:54:46;;;;;;;47.40;22.40;;;;;;;;;;1031405;28;20026;-77
2023/02/13 01:55:17;;;;;;;51.80;25.83;;;;;;;;;;1031696;28;20026;-78
2023/02/13 01:55:51;;;;;;;42.47;21.85;;;;;;;;;;1031726;28;20026;-78
2023/02/13 01:56:27;;;;;;;46.72;23.75;;;;;;;;;;1033083;28;20036;-78
2023/02/13 01:57:01;;;;;;;51.80;20.52;;;;;;;;;;1032334;28;20364;-79
2023/02/13 01:57:32;;;;;;;39.95;21.40;;;;;;;;;;1031249;28;20126;-79
2023/02/13 01:58:11;;;;;;;46.40;23.17;;;;;;;;;;1030714;28;20458;-80
2023/02/13 01:58:42;;;;;;;;;;;;;;;;;;1034000;28;20096;-80
2023/02/13 01:59:16;;;;;;;42.15;16.08;;;;;;;;;;1035618;28;19916;-80
2023/02/13 02:00:16;;;;;;;30.98;15.43;;;;;;;;;;1034321;28;20517;-80
2023/02/13 02:00:49;;;;;;;;;;;;;;;;;;1014723;29;20437;-80
2023/02/13 02:01:21;;;;;;;30.88;13.13;;;;;;;;;;1028592;28;19993;-80
2023/02/13 02:01:55;;;;;;;41.05;15.77;;;;;;;;;;1023342;28;20038;-78
2023/02/13 02:02:27;;;;;;;29.42;15.13;;;;;;;;;;1021592;29;20087;-80
2023/02/13 02:03:01;;;;;;;52.40;20.13;;;;;;;;;;1023491;28;20043;-80
2023/02/13 02:03:35;;;;;;;27.45;19.30;;;;;;;;;;1025649;28;20030;-79
2023/02/13 02:04:12;;;;;;;29.85;16.35;;;;;;;;;;1030054;28;20434;-79
2023/02/13 02:04:43;;;;;;;51.13;26.02;;;;;;;;;;1034838;28;20048;-80
2023/02/13 02:05:15;;;;;;;85.63;26.38;;;;;;;;;;1034595;28;20026;-80
2023/02/13 02:05:48;;;;;;;46.22;22.85;;;;;;;;;;1031452;28;20049;-80
2023/02/13 02:06:22;;;;;;;38.65;20.30;;;;;;;;;;1031870;28;20450;-79
2023/02/13 02:07:06;;;;;;;71.70;21.60;;;;;;;;;;1030706;28;21041;-79
2023/02/13 02:07:43;;;;;;;38.80;16.95;;;;;;;;;;1033028;28;20489;-79
2023/02/13 02:08:16;;;;;;;32.67;18.60;;;;;;;;;;1036211;28;20492;-80
2023/02/13 02:08:48;;;;;;;39.63;21.40;;;;;;;;;;1029665;28;20181;-79
2023/02/13 02:09:22;;;;;;;38.05;22.15;;;;;;;;;;1031396;28;20033;-80
2023/02/13 02:09:54;;;;;;;36.53;20.15;;;;;;;;;;1030913;28;20514;-79
2023/02/13 02:10:25;;;;;;;27.48;17.42;;;;;;;;;;1031940;28;20491;-79
2023/02/13 02:10:59;;;;;;;51.05;22.80;;;;;;;;;;1032172;28;20129;-80
2023/02/13 02:11:41;;;;;;;44.10;21.30;;;;;;;;;;1031174;28;20577;-79
2023/02/13 02:12:15;;;;;;;42.22;21.60;;;;;;;;;;1031897;28;20041;-79
2023/02/13 02:12:52;;;;;;;38.92;17.63;;;;;;;;;;1032470;28;20029;-79
2023/02/13 02:13:25;;;;;;;53.67;23.20;;;;;;;;;;1031813;28;20100;-79
2023/02/13 02:13:56;;;;;;;37.60;24.00;;;;;;;;;;1029428;28;20022;-79
2023/02/13 02:14:27;;;;;;;43.70;19.50;;;;;;;;;;1029073;28;20550;-79
2023/02/13 02:14:59;;;;;;;59.20;20.02;;;;;;;;;;1029878;28;20022;-79
2023/02/13 02:15:29;;;;;;;32.05;16.80;;;;;;;;;;1031928;28;20026;-79
2023/02/13 02:16:01;;;;;;;38.33;16.77;;;;;;;;;;1032574;28;20386;-79
2023/02/13 02:16:32;;;;;;;72.80;23.38;;;;;;;;;;1032355;28;20560;-79
2023/02/13 02:17:02;;;;;;;46.13;20.83;;;;;;;;;;1028223;28;20447;-79
2023/02/13 02:17:33;;;;;;;43.60;23.55;;;;;;;;;;1030391;28;20117;-81
2023/02/13 02:18:13;;;;;;;50.22;18.20;;;;;;;;;;1027361;28;20027;-80
2023/02/13 02:18:44;;;;;;;;;;;;;;;;;;1027777;28;20023;-78
2023/02/13 02:19:47;;;;;;;43.65;21.77;;;;;;;;;;1030916;28;20357;-80
2023/02/13 02:20:25;;;;;;;35.45;20.98;;;;;;;;;;1022649;28;20039;-79
2023/02/13 02:20:58;;;;;;;18.23;11.35;;;;;;;;;;1019104;29;20581;-80
2023/02/13 02:21:31;;;;;;;39.70;20.23;;;;;;;;;;1025764;28;20030;-79
2023/02/13 02:22:17;;;;;;;37.15;23.30;;;;;;;;;;1026672;28;20050;-79
2023/02/13 02:22:51;;;;;;;37.30;20.05;;;;;;;;;;1029080;28;20019;-79
2023/02/13 02:23:41;;;;;;;71.32;30.30;;;;;;;;;;1028724;28;20026;-80
2023/02/13 02:24:15;;;;;;;45.60;22.25;;;;;;;;;;1031570;28;20112;-79
2023/02/13 02:24:58;;;;;;;61.80;31.85;;;;;;;;;;1031539;28;20121;-79
2023/02/13 02:25:32;;;;;;;100.35;26.40;;;;;;;;;;1034750;28;20026;-80
2023/02/13 02:26:02;;;;;;;48.33;22.05;;;;;;;;;;1034802;28;20022;-79
2023/02/13 02:26:36;;;;;;;61.25;26.40;;;;;;;;;;1035028;28;20585;-80
2023/02/13 02:27:09;;;;;;;65.28;25.65;;;;;;;;;;1034964;28;20022;-80
2023/02/13 02:27:56;;;;;;;62.78;32.10;;;;;;;;;;1031480;28;20022;-79
2023/02/13 02:28:43;;;;;;;53.92;22.80;;;;;;;;;;1030911;28;20029;-79
2023/02/13 02:29:16;;;;;;;70.88;24.58;;;;;;;;;;1032145;28;20157;-78
2023/02/13 02:30:08;;;;;;;44.42;21.45;;;;;;;;;;1030956;28;20026;-81
2023/02/13 02:30:41;;;;;;;50.90;22.92;;;;;;;;;;1030710;28;20062;-81
2023/02/13 02:31:32;;;;;;;63.80;26.15;;;;;;;;;;1032512;28;20062;-80
2023/02/13 02:32:14;;;;;;;69.25;30.48;;;;;;;;;;1032373;28;20026;-80
2023/02/13 02:33:03;;;;;;;63.35;26.00;;;;;;;;;;1031807;28;20473;-80
2023/02/13 02:33:43;;;;;;;62.23;27.00;;;;;;;;;;1032323;28;20022;-80
2023/02/13 02:34:14;;;;;;;65.70;29.48;;;;;;;;;;1031800;28;20823;-79
2023/02/13 02:34:54;;;;;;;55.67;21.05;;;;;;;;;;1031604;28;20030;-79
2023/02/13 02:35:34;;;;;;;52.97;19.80;;;;;;;;;;1030389;28;20045;-81
2023/02/13 02:36:23;;;;;;;39.80;22.38;;;;;;;;;;1031367;28;20058;-81
2023/02/13 02:36:55;;;;;;;;;;;;;;;;;;1030732;28;20030;-79
2023/02/13 02:37:44;;;;;;;49.15;22.63;;;;;;;;;;1034241;28;19910;-80
2023/02/13 02:38:16;;;;;;;;;;;;;;;;;;1032330;28;20030;-79
2023/02/13 02:38:51;;;;;;;40.28;18.27;;;;;;;;;;1028000;28;19914;-79
2023/02/13 02:39:42;;;;;;;32.05;21.58;;;;;;;;;;1026687;28;20463;-79
2023/02/13 02:40:31;;;;;;;43.92;24.20;;;;;;;;;;1030587;28;20022;-79
2023/02/13 02:41:40;;;;;;;38.20;20.30;;;;;;;;;;1027347;28;20058;-78
2023/02/13 02:42:16;;;;;;;23.20;12.02;;;;;;;;;;1030692;28;20023;-78
2023/02/13 02:43:05;;;;;;;11.93;5.65;;;;;;;;;;1034229;28;20073;-80
2023/02/13 02:43:59;;;;;;;28.35;18.42;;;;;;;;;;1029728;28;20022;-79
2023/02/13 02:44:49;;;;;;;26.90;16.15;;;;;;;;;;1032960;28;20162;-81
2023/02/13 02:45:39;;;;;;;31.70;17.05;;;;;;;;;;1033957;28;20022;-80
2023/02/13 02:46:14;;;;;;;13.73;7.03;;;;;;;;;;1036277;28;20018;-78
2023/02/13 02:50:00;;;;;;;8.70;4.13;;;;;;;;;;1031546;28;20033;-79
2023/02/13 02:50:36;;;;;;;4.00;3.70;;;;;;;;;;1031125;28;20378;-80
2023/02/13 02:51:20;;;;;;;16.55;5.35;;;;;;;;;;1032390;28;20030;-79
2023/02/13 02:52:06;;;;;;;4.85;3.75;;;;;;;;;;1032261;28;20033;-79
2023/02/13 02:52:58;;;;;;;11.43;9.40;;;;;;;;;;1032049;28;20133;-80
2023/02/13 02:53:41;;;;;;;2.60;2.50;;;;;;;;;;1023521;29;20127;-81
2023/02/13 02:55:09;;;;;;;7.07;5.65;;;;;;;;;;1029285;28;20455;-79
2023/02/13 02:55:53;;;;;;;21.10;9.00;;;;;;;;;;1027235;28;21175;-80
2023/02/13 02:56:34;;;;;;;5.45;4.80;;;;;;;;;;1031325;28;20097;-80
2023/02/13 02:57:14;;;;;;;15.40;8.40;;;;;;;;;;1030743;28;20022;-80
2023/02/13 03:06:09;;;;;;;38.10;13.60;;;;;;;;;;1135738;22;20008;-81
2023/02/13 03:06:46;;;;;;;32.30;14.43;;;;;;;;;;1033996;28;20073;-80
2023/02/13 03:13:20;;;;;;;27.65;14.50;;;;;;;;;;1022865;29;20019;-80
2023/02/13 03:13:50;;;;;;;;;;;;;;;;;;1043984;22;20111;-80
2023/02/13 03:26:44;;;;;;;;;;;;;;;;;;1236526;22;21202;-81
2023/02/13 03:33:44;;;;;;;22.77;13.98;;;;;;;;;;1142316;22;19903;-80
2023/02/13 03:34:18;;;;;;;21.60;12.18;;;;;;;;;;1043937;28;20040;-80
2023/02/13 03:38:49;;;;;;;15.55;10.48;;;;;;;;;;1156645;22;19903;-81
2023/02/13 03:39:29;;;;;;;18.52;11.10;;;;;;;;;;1031815;28;20038;-81
2023/02/13 03:40:00;;;;;;;17.65;12.63;;;;;;;;;;1033816;28;20037;-80
2023/02/13 03:40:35;;;;;;;14.85;10.85;;;;;;;;;;1033028;28;20037;-80
2023/02/13 03:41:19;;;;;;;19.90;12.85;;;;;;;;;;1029289;28;20086;-80
2023/02/13 03:41:54;;;;;;;31.42;12.35;;;;;;;;;;1029369;28;20073;-81
2023/02/13 03:42:28;;;;;;;20.65;11.27;;;;;;;;;;1030377;28;20030;-81
2023/02/13 03:43:10;;;;;;;16.45;11.98;;;;;;;;;;1031078;28;20077;-81
2023/02/13 03:43:46;;;;;;;13.68;8.13;;;;;;;;;;1028735;28;20086;-80
2023/02/13 03:44:43;;;;;;;22.67;13.02;;;;;;;;;;1032500;28;20034;-81
2023/02/13 03:45:56;;;;;;;32.35;13.13;;;;;;;;;;1029547;28;20066;-81
2023/02/13 03:46:19;;;;;;;18.70;10.73;;;;;;;;;;1034399;28;20507;-81
2023/02/13 03:46:52;;;;;;;21.90;10.57;;;;;;;;;;1034130;28;20053;-82
2023/02/13 03:47:23;;;;;;;18.27;10.00;;;;;;;;;;1029928;28;20031;-82
2023/02/13 03:47:55;;;;;;;25.23;11.70;;;;;;;;;;1029592;28;20055;-82
2023/02/13 03:50:13;;;;;;;29.40;12.80;;;;;;;;;;1033019;28;20077;-81
2023/02/13 03:50:44;;;;;;;21.77;11.65;;;;;;;;;;1027297;28;20058;-82
2023/02/13 03:51:19;;;;;;;27.42;11.98;;;;;;;;;;1026569;28;20021;-81
2023/02/13 03:52:02;;;;;;;26.17;14.90;;;;;;;;;;1025779;28;20077;-81
2023/02/13 03:53:12;;;;;;;29.42;14.70;;;;;;;;;;1135541;22;20009;-81
2023/02/13 03:59:16;;;;;;;95.45;34.67;;;;;;;;;;1064351;22;19933;-82
2023/02/13 04:01:21;;;;;;;85.95;40.42;;;;;;;;;;1091362;22;19920;-83
2023/02/13 04:02:11;;;;;;;111.43;39.60;;;;;;;;;;1034030;28;20021;-81
2023/02/13 04:02:56;;;;;;;110.80;39.03;;;;;;;;;;1036099;28;20029;-83
2023/02/13 04:04:37;;;;;;;78.55;38.80;;;;;;;;;;1078023;23;20071;-79
2023/02/13 04:05:20;;;;;;;103.15;41.63;;;;;;;;;;1042959;28;20534;-83
2023/02/13 04:06:30;;;;;;;;;;;;;;;;;;1039658;22;19933;-82
2023/02/13 04:07:05;;;;;;;71.38;32.00;;;;;;;;;;1035502;28;19924;-81
2023/02/13 04:08:57;;;;;;;63.30;33.40;;;;;;;;;;1057799;23;19925;-82
2023/02/13 04:09:29;;;;;;;80.28;38.80;;;;;;;;;;1044046;28;20041;-82
2023/02/13 04:10:07;;;;;;;115.78;45.13;;;;;;;;;;1045434;28;20555;-82
2023/02/13 04:10:43;;;;;;;69.32;35.72;;;;;;;;;;1058674;23;20031;-81
2023/02/13 04:11:18;;;;;;;88.22;42.80;;;;;;;;;;1046950;28;20029;-81
2023/02/13 04:11:55;;;;;;;78.25;39.20;;;;;;;;;;1046605;28;20024;-82